sensor_id;sensor_type;location;lat;lon;timestamp;P1;durP1;ratioP1;P2;durP2;ratioP2
24637;SDS011;12773;50.162;8.548;2022-10-31T00:01:34;11.63;;;5.42;;
24637;SDS011;12773;50.162;8.548;2022-10-31T00:04:23;16.40;;;5.92;;
24637;SDS011;12773;50.162;8.548;2022-10-31T00:07:11;12.30;;;4.60;;
24637;SDS011;12773;50.162;8.548;2022-10-31T00:09:58;16.90;;;6.20;;
24637;SDS011;12773;50.162;8.548;2022-10-31T00:12:45;16.52;;;5.20;;
24637;SDS011;12773;50.162;8.548;2022-10-31T00:15:39;15.30;;;5.92;;
24637;SDS011;12773;50.162;8.548;2022-10-31T00:18:22;11.15;;;5.35;;
24637;SDS011;12773;50.162;8.548;2022-10-31T00:21:09;15.90;;;6.05;;
24637;SDS011;12773;50.162;8.548;2022-10-31T00:23:57;9.63;;;5.25;;
24637;SDS011;12773;50.162;8.548;2022-10-31T00:26:45;16.42;;;5.53;;
24637;SDS011;12773;50.162;8.548;2022-10-31T00:29:33;14.05;;;5.45;;
24637;SDS011;12773;50.162;8.548;2022-10-31T00:32:23;16.62;;;5.55;;
24637;SDS011;12773;50.162;8.548;2022-10-31T00:35:10;14.63;;;5.15;;
24637;SDS011;12773;50.162;8.548;2022-10-31T00:37:58;14.07;;;5.20;;
24637;SDS011;12773;50.162;8.548;2022-10-31T00:40:46;14.05;;;5.30;;
24637;SDS011;12773;50.162;8.548;2022-10-31T00:43:33;11.05;;;5.40;;
24637;SDS011;12773;50.162;8.548;2022-10-31T00:46:21;16.42;;;5.58;;
24637;SDS011;12773;50.162;8.548;2022-10-31T00:49:09;19.77;;;5.28;;
24637;SDS011;12773;50.162;8.548;2022-10-31T00:51:58;17.02;;;5.05;;
24637;SDS011;12773;50.162;8.548;2022-10-31T00:54:45;14.58;;;4.67;;
24637;SDS011;12773;50.162;8.548;2022-10-31T00:57:32;12.80;;;5.35;;
24637;SDS011;12773;50.162;8.548;2022-10-31T01:00:21;16.35;;;4.62;;
24637;SDS011;12773;50.162;8.548;2022-10-31T01:03:09;15.28;;;5.95;;
24637;SDS011;12773;50.162;8.548;2022-10-31T01:05:57;13.75;;;5.50;;
24637;SDS011;12773;50.162;8.548;2022-10-31T01:08:52;13.68;;;4.90;;
24637;SDS011;12773;50.162;8.548;2022-10-31T01:11:39;16.02;;;5.58;;
24637;SDS011;12773;50.162;8.548;2022-10-31T01:14:26;15.53;;;5.17;;
24637;SDS011;12773;50.162;8.548;2022-10-31T01:17:14;12.50;;;4.67;;
24637;SDS011;12773;50.162;8.548;2022-10-31T01:20:01;17.32;;;5.10;;
24637;SDS011;12773;50.162;8.548;2022-10-31T01:22:50;11.95;;;5.37;;
24637;SDS011;12773;50.162;8.548;2022-10-31T01:25:37;18.98;;;5.47;;
24637;SDS011;12773;50.162;8.548;2022-10-31T01:28:24;12.35;;;5.00;;
24637;SDS011;12773;50.162;8.548;2022-10-31T01:31:12;20.20;;;5.65;;
24637;SDS011;12773;50.162;8.548;2022-10-31T01:33:59;17.73;;;5.22;;
24637;SDS011;12773;50.162;8.548;2022-10-31T01:36:47;11.20;;;4.92;;
24637;SDS011;12773;50.162;8.548;2022-10-31T01:39:37;16.80;;;5.40;;
24637;SDS011;12773;50.162;8.548;2022-10-31T01:42:24;21.48;;;6.12;;
24637;SDS011;12773;50.162;8.548;2022-10-31T01:45:12;14.68;;;5.50;;
24637;SDS011;12773;50.162;8.548;2022-10-31T01:48:01;14.07;;;4.90;;
24637;SDS011;12773;50.162;8.548;2022-10-31T01:50:49;13.68;;;4.78;;
24637;SDS011;12773;50.162;8.548;2022-10-31T01:53:39;14.85;;;4.85;;
24637;SDS011;12773;50.162;8.548;2022-10-31T01:56:28;15.13;;;4.97;;
24637;SDS011;12773;50.162;8.548;2022-10-31T01:59:16;23.77;;;5.37;;
24637;SDS011;12773;50.162;8.548;2022-10-31T02:02:06;15.80;;;4.78;;
24637;SDS011;12773;50.162;8.548;2022-10-31T02:04:54;13.95;;;5.15;;
24637;SDS011;12773;50.162;8.548;2022-10-31T02:10:38;11.27;;;4.87;;
24637;SDS011;12773;50.162;8.548;2022-10-31T02:13:29;16.35;;;4.75;;
24637;SDS011;12773;50.162;8.548;2022-10-31T02:16:17;12.35;;;5.08;;
24637;SDS011;12773;50.162;8.548;2022-10-31T02:19:04;14.45;;;4.78;;
24637;SDS011;12773;50.162;8.548;2022-10-31T02:22:00;13.93;;;5.03;;
24637;SDS011;12773;50.162;8.548;2022-10-31T02:24:46;12.88;;;5.67;;
24637;SDS011;12773;50.162;8.548;2022-10-31T02:28:13;13.03;;;4.97;;
24637;SDS011;12773;50.162;8.548;2022-10-31T02:34:19;10.45;;;5.17;;
24637;SDS011;12773;50.162;8.548;2022-10-31T02:37:13;12.35;;;4.72;;
24637;SDS011;12773;50.162;8.548;2022-10-31T02:40:10;14.07;;;4.50;;
24637;SDS011;12773;50.162;8.548;2022-10-31T02:43:10;13.50;;;4.72;;
24637;SDS011;12773;50.162;8.548;2022-10-31T02:46:06;10.82;;;4.10;;
24637;SDS011;12773;50.162;8.548;2022-10-31T02:48:53;11.48;;;4.50;;
24637;SDS011;12773;50.162;8.548;2022-10-31T02:51:43;12.53;;;5.00;;
24637;SDS011;12773;50.162;8.548;2022-10-31T02:54:31;18.70;;;5.58;;
24637;SDS011;12773;50.162;8.548;2022-10-31T02:57:25;13.90;;;5.08;;
24637;SDS011;12773;50.162;8.548;2022-10-31T03:00:15;18.75;;;5.95;;
24637;SDS011;12773;50.162;8.548;2022-10-31T03:09:40;15.48;;;5.45;;
24637;SDS011;12773;50.162;8.548;2022-10-31T03:12:33;12.50;;;5.30;;
24637;SDS011;12773;50.162;8.548;2022-10-31T03:15:33;16.80;;;5.40;;
24637;SDS011;12773;50.162;8.548;2022-10-31T03:18:25;16.87;;;5.55;;
24637;SDS011;12773;50.162;8.548;2022-10-31T03:21:18;13.38;;;5.12;;
24637;SDS011;12773;50.162;8.548;2022-10-31T03:24:06;22.25;;;5.70;;
24637;SDS011;12773;50.162;8.548;2022-10-31T03:26:56;14.75;;;5.67;;
24637;SDS011;12773;50.162;8.548;2022-10-31T03:29:46;12.93;;;5.60;;
24637;SDS011;12773;50.162;8.548;2022-10-31T03:32:38;20.48;;;5.90;;
24637;SDS011;12773;50.162;8.548;2022-10-31T03:35:30;15.10;;;5.50;;
24637;SDS011;12773;50.162;8.548;2022-10-31T03:38:19;15.90;;;5.65;;
24637;SDS011;12773;50.162;8.548;2022-10-31T03:41:09;19.82;;;5.53;;
24637;SDS011;12773;50.162;8.548;2022-10-31T03:43:59;15.25;;;5.75;;
24637;SDS011;12773;50.162;8.548;2022-10-31T03:46:51;16.45;;;5.50;;
24637;SDS011;12773;50.162;8.548;2022-10-31T03:49:39;17.80;;;6.55;;
24637;SDS011;12773;50.162;8.548;2022-10-31T03:52:27;13.90;;;5.60;;
24637;SDS011;12773;50.162;8.548;2022-10-31T03:55:17;17.98;;;5.55;;
24637;SDS011;12773;50.162;8.548;2022-10-31T03:58:26;20.17;;;5.53;;
24637;SDS011;12773;50.162;8.548;2022-10-31T04:01:18;12.03;;;5.05;;
24637;SDS011;12773;50.162;8.548;2022-10-31T04:04:07;16.45;;;5.53;;
24637;SDS011;12773;50.162;8.548;2022-10-31T04:06:55;13.88;;;5.80;;
24637;SDS011;12773;50.162;8.548;2022-10-31T04:09:45;12.98;;;4.62;;
24637;SDS011;12773;50.162;8.548;2022-10-31T04:12:34;14.40;;;5.10;;
24637;SDS011;12773;50.162;8.548;2022-10-31T04:15:23;11.00;;;5.20;;
24637;SDS011;12773;50.162;8.548;2022-10-31T04:18:13;17.50;;;6.65;;
24637;SDS011;12773;50.162;8.548;2022-10-31T04:21:01;13.55;;;5.70;;
24637;SDS011;12773;50.162;8.548;2022-10-31T04:23:53;13.35;;;6.08;;
24637;SDS011;12773;50.162;8.548;2022-10-31T04:26:40;16.85;;;5.97;;
24637;SDS011;12773;50.162;8.548;2022-10-31T04:29:28;20.10;;;5.87;;
24637;SDS011;12773;50.162;8.548;2022-10-31T04:32:16;19.80;;;6.67;;
24637;SDS011;12773;50.162;8.548;2022-10-31T04:35:03;14.87;;;7.25;;
24637;SDS011;12773;50.162;8.548;2022-10-31T04:37:51;14.03;;;5.15;;
24637;SDS011;12773;50.162;8.548;2022-10-31T04:40:38;9.70;;;4.90;;
24637;SDS011;12773;50.162;8.548;2022-10-31T04:43:26;16.52;;;6.55;;
24637;SDS011;12773;50.162;8.548;2022-10-31T04:46:13;15.65;;;6.47;;
24637;SDS011;12773;50.162;8.548;2022-10-31T04:49:01;22.45;;;7.67;;
24637;SDS011;12773;50.162;8.548;2022-10-31T04:51:48;19.67;;;6.87;;
24637;SDS011;12773;50.162;8.548;2022-10-31T04:54:36;21.62;;;7.62;;
24637;SDS011;12773;50.162;8.548;2022-10-31T04:57:24;21.48;;;7.65;;
24637;SDS011;12773;50.162;8.548;2022-10-31T05:00:11;20.97;;;7.42;;
24637;SDS011;12773;50.162;8.548;2022-10-31T05:03:00;18.75;;;6.92;;
24637;SDS011;12773;50.162;8.548;2022-10-31T05:05:48;16.32;;;6.75;;
24637;SDS011;12773;50.162;8.548;2022-10-31T05:08:35;22.67;;;8.05;;
24637;SDS011;12773;50.162;8.548;2022-10-31T05:11:23;23.02;;;7.85;;
24637;SDS011;12773;50.162;8.548;2022-10-31T05:14:10;18.17;;;7.87;;
24637;SDS011;12773;50.162;8.548;2022-10-31T05:16:57;20.05;;;8.15;;
24637;SDS011;12773;50.162;8.548;2022-10-31T05:19:45;23.52;;;6.83;;
24637;SDS011;12773;50.162;8.548;2022-10-31T05:22:32;17.67;;;7.12;;
24637;SDS011;12773;50.162;8.548;2022-10-31T05:25:20;24.60;;;6.62;;
24637;SDS011;12773;50.162;8.548;2022-10-31T05:28:09;22.67;;;6.85;;
24637;SDS011;12773;50.162;8.548;2022-10-31T05:30:56;15.20;;;7.05;;
24637;SDS011;12773;50.162;8.548;2022-10-31T05:33:44;21.10;;;7.53;;
24637;SDS011;12773;50.162;8.548;2022-10-31T05:36:31;19.62;;;7.22;;
24637;SDS011;12773;50.162;8.548;2022-10-31T05:39:19;24.92;;;7.00;;
24637;SDS011;12773;50.162;8.548;2022-10-31T05:42:06;23.25;;;7.42;;
24637;SDS011;12773;50.162;8.548;2022-10-31T05:44:53;22.00;;;8.28;;
24637;SDS011;12773;50.162;8.548;2022-10-31T05:47:41;19.40;;;7.75;;
24637;SDS011;12773;50.162;8.548;2022-10-31T05:50:29;18.95;;;7.33;;
24637;SDS011;12773;50.162;8.548;2022-10-31T05:53:17;21.48;;;7.30;;
24637;SDS011;12773;50.162;8.548;2022-10-31T05:56:05;18.70;;;7.75;;
24637;SDS011;12773;50.162;8.548;2022-10-31T05:58:52;18.65;;;7.42;;
24637;SDS011;12773;50.162;8.548;2022-10-31T06:01:40;17.17;;;7.53;;
24637;SDS011;12773;50.162;8.548;2022-10-31T06:04:27;26.70;;;7.75;;
24637;SDS011;12773;50.162;8.548;2022-10-31T06:07:15;19.48;;;7.17;;
24637;SDS011;12773;50.162;8.548;2022-10-31T06:10:03;16.75;;;7.25;;
24637;SDS011;12773;50.162;8.548;2022-10-31T06:12:51;22.87;;;8.08;;
24637;SDS011;12773;50.162;8.548;2022-10-31T06:15:39;16.00;;;7.20;;
24637;SDS011;12773;50.162;8.548;2022-10-31T06:18:28;21.17;;;8.00;;
24637;SDS011;12773;50.162;8.548;2022-10-31T06:21:15;18.98;;;7.22;;
24637;SDS011;12773;50.162;8.548;2022-10-31T06:24:04;21.70;;;7.97;;
24637;SDS011;12773;50.162;8.548;2022-10-31T06:26:52;24.63;;;7.90;;
24637;SDS011;12773;50.162;8.548;2022-10-31T06:29:39;19.32;;;7.87;;
24637;SDS011;12773;50.162;8.548;2022-10-31T06:32:26;18.05;;;7.58;;
24637;SDS011;12773;50.162;8.548;2022-10-31T06:35:14;17.73;;;7.67;;
24637;SDS011;12773;50.162;8.548;2022-10-31T06:38:01;19.85;;;7.85;;
24637;SDS011;12773;50.162;8.548;2022-10-31T06:40:50;15.75;;;7.45;;
24637;SDS011;12773;50.162;8.548;2022-10-31T06:43:37;22.75;;;6.67;;
24637;SDS011;12773;50.162;8.548;2022-10-31T06:46:24;26.87;;;7.97;;
24637;SDS011;12773;50.162;8.548;2022-10-31T06:49:12;23.47;;;7.60;;
24637;SDS011;12773;50.162;8.548;2022-10-31T06:51:59;24.87;;;8.45;;
24637;SDS011;12773;50.162;8.548;2022-10-31T06:54:46;21.70;;;7.92;;
24637;SDS011;12773;50.162;8.548;2022-10-31T06:57:34;23.22;;;8.30;;
24637;SDS011;12773;50.162;8.548;2022-10-31T07:00:22;31.17;;;8.63;;
24637;SDS011;12773;50.162;8.548;2022-10-31T07:03:11;16.97;;;8.00;;
24637;SDS011;12773;50.162;8.548;2022-10-31T07:05:59;24.27;;;8.60;;
24637;SDS011;12773;50.162;8.548;2022-10-31T07:08:46;24.10;;;8.63;;
24637;SDS011;12773;50.162;8.548;2022-10-31T07:11:34;25.15;;;9.03;;
24637;SDS011;12773;50.162;8.548;2022-10-31T07:14:22;18.37;;;7.30;;
24637;SDS011;12773;50.162;8.548;2022-10-31T07:17:09;16.40;;;7.10;;
24637;SDS011;12773;50.162;8.548;2022-10-31T07:19:56;19.62;;;8.30;;
24637;SDS011;12773;50.162;8.548;2022-10-31T07:22:44;19.85;;;8.18;;
24637;SDS011;12773;50.162;8.548;2022-10-31T07:25:33;20.95;;;8.00;;
24637;SDS011;12773;50.162;8.548;2022-10-31T07:28:20;20.65;;;8.28;;
24637;SDS011;12773;50.162;8.548;2022-10-31T07:31:07;15.95;;;8.40;;
24637;SDS011;12773;50.162;8.548;2022-10-31T07:33:54;20.15;;;8.10;;
24637;SDS011;12773;50.162;8.548;2022-10-31T07:36:42;17.95;;;8.58;;
24637;SDS011;12773;50.162;8.548;2022-10-31T07:39:29;25.57;;;10.75;;
24637;SDS011;12773;50.162;8.548;2022-10-31T07:42:16;28.27;;;11.35;;
24637;SDS011;12773;50.162;8.548;2022-10-31T07:45:04;27.80;;;12.85;;
24637;SDS011;12773;50.162;8.548;2022-10-31T07:47:53;24.23;;;10.45;;
24637;SDS011;12773;50.162;8.548;2022-10-31T07:50:41;22.05;;;10.00;;
24637;SDS011;12773;50.162;8.548;2022-10-31T07:53:28;24.98;;;10.38;;
24637;SDS011;12773;50.162;8.548;2022-10-31T07:56:15;23.38;;;11.03;;
24637;SDS011;12773;50.162;8.548;2022-10-31T07:59:03;24.57;;;11.00;;
24637;SDS011;12773;50.162;8.548;2022-10-31T08:01:50;17.45;;;9.48;;
24637;SDS011;12773;50.162;8.548;2022-10-31T08:04:37;21.97;;;10.28;;
24637;SDS011;12773;50.162;8.548;2022-10-31T08:07:25;20.88;;;10.08;;
24637;SDS011;12773;50.162;8.548;2022-10-31T08:10:12;20.45;;;10.55;;
24637;SDS011;12773;50.162;8.548;2022-10-31T08:13:04;19.27;;;10.55;;
24637;SDS011;12773;50.162;8.548;2022-10-31T08:15:53;20.45;;;9.43;;
24637;SDS011;12773;50.162;8.548;2022-10-31T08:18:41;20.70;;;9.63;;
24637;SDS011;12773;50.162;8.548;2022-10-31T08:21:28;21.70;;;9.13;;
24637;SDS011;12773;50.162;8.548;2022-10-31T08:24:16;19.82;;;9.15;;
24637;SDS011;12773;50.162;8.548;2022-10-31T08:27:03;21.35;;;9.78;;
24637;SDS011;12773;50.162;8.548;2022-10-31T08:29:51;20.68;;;9.63;;
24637;SDS011;12773;50.162;8.548;2022-10-31T08:32:38;19.77;;;9.55;;
24637;SDS011;12773;50.162;8.548;2022-10-31T08:35:27;18.62;;;9.35;;
24637;SDS011;12773;50.162;8.548;2022-10-31T08:38:15;18.77;;;8.38;;
24637;SDS011;12773;50.162;8.548;2022-10-31T08:41:03;21.02;;;8.40;;
24637;SDS011;12773;50.162;8.548;2022-10-31T08:43:56;19.37;;;8.63;;
24637;SDS011;12773;50.162;8.548;2022-10-31T08:46:39;16.23;;;8.05;;
24637;SDS011;12773;50.162;8.548;2022-10-31T08:49:26;17.27;;;8.33;;
24637;SDS011;12773;50.162;8.548;2022-10-31T08:52:14;20.80;;;8.55;;
24637;SDS011;12773;50.162;8.548;2022-10-31T08:55:01;15.28;;;8.23;;
24637;SDS011;12773;50.162;8.548;2022-10-31T08:57:53;22.30;;;9.23;;
24637;SDS011;12773;50.162;8.548;2022-10-31T09:00:42;22.75;;;9.25;;
24637;SDS011;12773;50.162;8.548;2022-10-31T09:03:30;22.85;;;9.55;;
24637;SDS011;12773;50.162;8.548;2022-10-31T09:06:19;20.80;;;8.93;;
24637;SDS011;12773;50.162;8.548;2022-10-31T09:09:06;19.77;;;8.48;;
24637;SDS011;12773;50.162;8.548;2022-10-31T09:11:54;15.28;;;8.40;;
24637;SDS011;12773;50.162;8.548;2022-10-31T09:14:41;18.55;;;7.90;;
24637;SDS011;12773;50.162;8.548;2022-10-31T09:17:29;16.42;;;7.62;;
24637;SDS011;12773;50.162;8.548;2022-10-31T09:20:16;16.57;;;7.53;;
24637;SDS011;12773;50.162;8.548;2022-10-31T09:23:05;23.85;;;8.85;;
24637;SDS011;12773;50.162;8.548;2022-10-31T09:25:54;20.32;;;8.40;;
24637;SDS011;12773;50.162;8.548;2022-10-31T09:28:41;18.50;;;8.03;;
24637;SDS011;12773;50.162;8.548;2022-10-31T09:31:30;17.05;;;8.20;;
24637;SDS011;12773;50.162;8.548;2022-10-31T09:34:17;18.57;;;7.83;;
24637;SDS011;12773;50.162;8.548;2022-10-31T09:37:05;19.52;;;7.20;;
24637;SDS011;12773;50.162;8.548;2022-10-31T09:39:52;16.62;;;8.05;;
24637;SDS011;12773;50.162;8.548;2022-10-31T09:45:35;12.23;;;6.95;;
24637;SDS011;12773;50.162;8.548;2022-10-31T09:51:18;18.23;;;7.33;;
24637;SDS011;12773;50.162;8.548;2022-10-31T09:54:20;16.80;;;7.62;;
24637;SDS011;12773;50.162;8.548;2022-10-31T09:57:31;12.43;;;7.58;;
24637;SDS011;12773;50.162;8.548;2022-10-31T10:00:17;15.98;;;7.60;;
24637;SDS011;12773;50.162;8.548;2022-10-31T10:06:16;14.90;;;7.58;;
24637;SDS011;12773;50.162;8.548;2022-10-31T10:09:07;15.28;;;7.85;;
24637;SDS011;12773;50.162;8.548;2022-10-31T10:21:38;14.90;;;7.58;;
24637;SDS011;12773;50.162;8.548;2022-10-31T10:27:48;16.52;;;8.50;;
24637;SDS011;12773;50.162;8.548;2022-10-31T10:33:32;16.57;;;7.30;;
24637;SDS011;12773;50.162;8.548;2022-10-31T10:36:30;16.52;;;7.35;;
24637;SDS011;12773;50.162;8.548;2022-10-31T10:39:40;15.72;;;7.10;;
24637;SDS011;12773;50.162;8.548;2022-10-31T10:42:29;18.95;;;7.83;;
24637;SDS011;12773;50.162;8.548;2022-10-31T10:45:34;13.53;;;7.75;;
24637;SDS011;12773;50.162;8.548;2022-10-31T10:48:42;16.40;;;7.40;;
24637;SDS011;12773;50.162;8.548;2022-10-31T10:54:46;17.52;;;8.08;;
24637;SDS011;12773;50.162;8.548;2022-10-31T11:00:50;19.40;;;8.05;;
24637;SDS011;12773;50.162;8.548;2022-10-31T11:03:41;15.78;;;8.10;;
24637;SDS011;12773;50.162;8.548;2022-10-31T11:06:28;16.45;;;7.62;;
24637;SDS011;12773;50.162;8.548;2022-10-31T11:09:16;20.52;;;8.73;;
24637;SDS011;12773;50.162;8.548;2022-10-31T11:15:21;22.87;;;8.98;;
24637;SDS011;12773;50.162;8.548;2022-10-31T11:18:27;13.85;;;8.18;;
24637;SDS011;12773;50.162;8.548;2022-10-31T11:21:22;15.78;;;8.38;;
24637;SDS011;12773;50.162;8.548;2022-10-31T11:24:16;22.20;;;8.05;;
24637;SDS011;12773;50.162;8.548;2022-10-31T11:30:11;15.20;;;7.05;;
24637;SDS011;12773;50.162;8.548;2022-10-31T11:32:59;19.02;;;7.70;;
24637;SDS011;12773;50.162;8.548;2022-10-31T11:35:47;18.60;;;7.70;;
24637;SDS011;12773;50.162;8.548;2022-10-31T11:38:40;19.48;;;6.62;;
24637;SDS011;12773;50.162;8.548;2022-10-31T11:41:30;14.58;;;7.17;;
24637;SDS011;12773;50.162;8.548;2022-10-31T11:44:25;18.30;;;6.10;;
24637;SDS011;12773;50.162;8.548;2022-10-31T11:47:20;15.68;;;6.00;;
24637;SDS011;12773;50.162;8.548;2022-10-31T11:50:09;13.40;;;7.05;;
24637;SDS011;12773;50.162;8.548;2022-10-31T11:52:58;16.50;;;6.90;;
24637;SDS011;12773;50.162;8.548;2022-10-31T11:55:46;18.42;;;7.47;;
24637;SDS011;12773;50.162;8.548;2022-10-31T11:58:36;13.18;;;7.22;;
24637;SDS011;12773;50.162;8.548;2022-10-31T12:01:29;15.10;;;7.92;;
24637;SDS011;12773;50.162;8.548;2022-10-31T12:04:14;13.98;;;7.15;;
24637;SDS011;12773;50.162;8.548;2022-10-31T12:07:02;13.93;;;6.65;;
24637;SDS011;12773;50.162;8.548;2022-10-31T12:09:50;15.40;;;7.12;;
24637;SDS011;12773;50.162;8.548;2022-10-31T12:12:41;20.62;;;7.05;;
24637;SDS011;12773;50.162;8.548;2022-10-31T12:15:36;18.02;;;7.97;;
24637;SDS011;12773;50.162;8.548;2022-10-31T12:18:32;17.48;;;7.33;;
24637;SDS011;12773;50.162;8.548;2022-10-31T12:24:28;17.00;;;6.85;;
24637;SDS011;12773;50.162;8.548;2022-10-31T12:30:20;15.53;;;6.25;;
24637;SDS011;12773;50.162;8.548;2022-10-31T12:46:11;9.48;;;3.80;;
24637;SDS011;12773;50.162;8.548;2022-10-31T12:51:40;13.50;;;4.53;;
24637;SDS011;12773;50.162;8.548;2022-10-31T12:54:43;10.38;;;4.42;;
24637;SDS011;12773;50.162;8.548;2022-10-31T12:57:37;10.05;;;5.00;;
24637;SDS011;12773;50.162;8.548;2022-10-31T13:00:26;12.03;;;4.80;;
24637;SDS011;12773;50.162;8.548;2022-10-31T13:06:23;11.43;;;3.60;;
24637;SDS011;12773;50.162;8.548;2022-10-31T13:09:25;8.45;;;4.40;;
24637;SDS011;12773;50.162;8.548;2022-10-31T13:12:17;11.30;;;4.67;;
24637;SDS011;12773;50.162;8.548;2022-10-31T13:15:12;11.90;;;4.10;;
24637;SDS011;12773;50.162;8.548;2022-10-31T13:18:00;11.80;;;4.97;;
24637;SDS011;12773;50.162;8.548;2022-10-31T13:20:53;12.23;;;4.72;;
24637;SDS011;12773;50.162;8.548;2022-10-31T13:23:41;8.23;;;4.40;;
24637;SDS011;12773;50.162;8.548;2022-10-31T13:26:35;9.60;;;3.98;;
24637;SDS011;12773;50.162;8.548;2022-10-31T13:29:25;8.08;;;4.10;;
24637;SDS011;12773;50.162;8.548;2022-10-31T13:32:17;13.58;;;4.35;;
24637;SDS011;12773;50.162;8.548;2022-10-31T13:35:07;13.88;;;4.62;;
24637;SDS011;12773;50.162;8.548;2022-10-31T13:38:03;10.60;;;5.10;;
24637;SDS011;12773;50.162;8.548;2022-10-31T13:44:26;11.43;;;4.70;;
24637;SDS011;12773;50.162;8.548;2022-10-31T13:47:24;19.95;;;6.17;;
24637;SDS011;12773;50.162;8.548;2022-10-31T13:50:19;12.37;;;4.83;;
24637;SDS011;12773;50.162;8.548;2022-10-31T13:53:20;13.40;;;4.90;;
24637;SDS011;12773;50.162;8.548;2022-10-31T13:59:14;10.08;;;4.60;;
24637;SDS011;12773;50.162;8.548;2022-10-31T14:02:00;17.37;;;5.62;;
24637;SDS011;12773;50.162;8.548;2022-10-31T14:04:50;13.00;;;5.30;;
24637;SDS011;12773;50.162;8.548;2022-10-31T14:07:42;13.38;;;5.40;;
24637;SDS011;12773;50.162;8.548;2022-10-31T14:10:37;12.73;;;5.00;;
24637;SDS011;12773;50.162;8.548;2022-10-31T14:16:18;11.90;;;5.45;;
24637;SDS011;12773;50.162;8.548;2022-10-31T14:19:14;11.75;;;5.83;;
24637;SDS011;12773;50.162;8.548;2022-10-31T14:22:04;11.65;;;5.33;;
24637;SDS011;12773;50.162;8.548;2022-10-31T14:24:52;13.32;;;5.42;;
24637;SDS011;12773;50.162;8.548;2022-10-31T14:27:44;13.45;;;5.40;;
24637;SDS011;12773;50.162;8.548;2022-10-31T14:30:33;13.72;;;5.55;;
24637;SDS011;12773;50.162;8.548;2022-10-31T14:33:22;20.10;;;6.00;;
24637;SDS011;12773;50.162;8.548;2022-10-31T14:36:23;14.20;;;5.58;;
24637;SDS011;12773;50.162;8.548;2022-10-31T14:42:25;12.78;;;4.97;;
24637;SDS011;12773;50.162;8.548;2022-10-31T14:45:25;11.97;;;5.25;;
24637;SDS011;12773;50.162;8.548;2022-10-31T14:51:30;17.42;;;4.65;;
24637;SDS011;12773;50.162;8.548;2022-10-31T14:54:25;14.68;;;4.92;;
24637;SDS011;12773;50.162;8.548;2022-10-31T14:57:34;9.75;;;4.40;;
24637;SDS011;12773;50.162;8.548;2022-10-31T15:00:18;10.75;;;4.87;;
24637;SDS011;12773;50.162;8.548;2022-10-31T15:03:17;13.60;;;4.97;;
24637;SDS011;12773;50.162;8.548;2022-10-31T15:06:11;13.68;;;4.47;;
24637;SDS011;12773;50.162;8.548;2022-10-31T15:08:59;8.85;;;4.42;;
24637;SDS011;12773;50.162;8.548;2022-10-31T15:11:47;13.53;;;4.35;;
24637;SDS011;12773;50.162;8.548;2022-10-31T15:14:34;9.80;;;4.08;;
24637;SDS011;12773;50.162;8.548;2022-10-31T15:17:23;7.83;;;4.42;;
24637;SDS011;12773;50.162;8.548;2022-10-31T15:20:12;11.18;;;4.50;;
24637;SDS011;12773;50.162;8.548;2022-10-31T15:23:01;13.40;;;4.95;;
24637;SDS011;12773;50.162;8.548;2022-10-31T15:25:49;12.88;;;4.37;;
24637;SDS011;12773;50.162;8.548;2022-10-31T15:28:37;14.87;;;4.30;;
24637;SDS011;12773;50.162;8.548;2022-10-31T15:31:24;11.35;;;5.45;;
24637;SDS011;12773;50.162;8.548;2022-10-31T15:34:18;13.93;;;5.10;;
24637;SDS011;12773;50.162;8.548;2022-10-31T15:37:01;16.30;;;5.42;;
24637;SDS011;12773;50.162;8.548;2022-10-31T15:39:49;9.60;;;4.58;;
24637;SDS011;12773;50.162;8.548;2022-10-31T15:42:39;13.25;;;5.22;;
24637;SDS011;12773;50.162;8.548;2022-10-31T15:45:28;11.33;;;5.20;;
24637;SDS011;12773;50.162;8.548;2022-10-31T15:48:22;11.88;;;4.72;;
24637;SDS011;12773;50.162;8.548;2022-10-31T15:51:10;10.95;;;4.65;;
24637;SDS011;12773;50.162;8.548;2022-10-31T15:53:58;13.85;;;5.00;;
24637;SDS011;12773;50.162;8.548;2022-10-31T15:56:46;10.60;;;4.50;;
24637;SDS011;12773;50.162;8.548;2022-10-31T15:59:33;12.95;;;4.97;;
24637;SDS011;12773;50.162;8.548;2022-10-31T16:02:22;16.42;;;4.70;;
24637;SDS011;12773;50.162;8.548;2022-10-31T16:05:14;11.65;;;4.50;;
24637;SDS011;12773;50.162;8.548;2022-10-31T16:08:21;12.55;;;5.00;;
24637;SDS011;12773;50.162;8.548;2022-10-31T16:11:16;11.50;;;4.12;;
24637;SDS011;12773;50.162;8.548;2022-10-31T16:14:22;10.88;;;4.55;;
24637;SDS011;12773;50.162;8.548;2022-10-31T16:17:12;13.60;;;4.92;;
24637;SDS011;12773;50.162;8.548;2022-10-31T16:20:02;17.23;;;5.00;;
24637;SDS011;12773;50.162;8.548;2022-10-31T16:22:51;12.85;;;5.92;;
24637;SDS011;12773;50.162;8.548;2022-10-31T16:25:40;20.57;;;5.92;;
24637;SDS011;12773;50.162;8.548;2022-10-31T16:28:27;14.13;;;5.67;;
24637;SDS011;12773;50.162;8.548;2022-10-31T16:31:25;16.97;;;5.72;;
24637;SDS011;12773;50.162;8.548;2022-10-31T16:34:17;16.60;;;6.33;;
24637;SDS011;12773;50.162;8.548;2022-10-31T16:37:01;19.05;;;6.87;;
24637;SDS011;12773;50.162;8.548;2022-10-31T16:39:48;19.57;;;6.87;;
24637;SDS011;12773;50.162;8.548;2022-10-31T16:42:36;14.18;;;6.35;;
24637;SDS011;12773;50.162;8.548;2022-10-31T16:45:25;19.67;;;7.90;;
24637;SDS011;12773;50.162;8.548;2022-10-31T16:48:14;19.05;;;7.28;;
24637;SDS011;12773;50.162;8.548;2022-10-31T16:51:06;15.85;;;6.65;;
24637;SDS011;12773;50.162;8.548;2022-10-31T16:53:56;16.77;;;6.37;;
24637;SDS011;12773;50.162;8.548;2022-10-31T16:56:43;15.93;;;6.28;;
24637;SDS011;12773;50.162;8.548;2022-10-31T16:59:31;12.68;;;6.20;;
24637;SDS011;12773;50.162;8.548;2022-10-31T17:02:21;13.18;;;5.90;;
24637;SDS011;12773;50.162;8.548;2022-10-31T17:05:11;14.60;;;5.12;;
24637;SDS011;12773;50.162;8.548;2022-10-31T17:07:59;17.37;;;6.62;;
24637;SDS011;12773;50.162;8.548;2022-10-31T17:10:47;14.00;;;5.67;;
24637;SDS011;12773;50.162;8.548;2022-10-31T17:13:40;12.07;;;5.70;;
24637;SDS011;12773;50.162;8.548;2022-10-31T17:16:27;12.10;;;5.12;;
24637;SDS011;12773;50.162;8.548;2022-10-31T17:19:15;11.65;;;5.60;;
24637;SDS011;12773;50.162;8.548;2022-10-31T17:22:02;14.50;;;7.25;;
24637;SDS011;12773;50.162;8.548;2022-10-31T17:24:49;12.90;;;5.75;;
24637;SDS011;12773;50.162;8.548;2022-10-31T17:27:40;17.00;;;7.65;;
24637;SDS011;12773;50.162;8.548;2022-10-31T17:30:28;12.33;;;6.05;;
24637;SDS011;12773;50.162;8.548;2022-10-31T17:33:17;14.60;;;5.95;;
24637;SDS011;12773;50.162;8.548;2022-10-31T17:36:04;13.75;;;5.35;;
24637;SDS011;12773;50.162;8.548;2022-10-31T17:38:52;20.27;;;5.42;;
24637;SDS011;12773;50.162;8.548;2022-10-31T17:41:39;16.48;;;6.28;;
24637;SDS011;12773;50.162;8.548;2022-10-31T17:44:27;15.38;;;5.60;;
24637;SDS011;12773;50.162;8.548;2022-10-31T17:47:14;14.15;;;5.55;;
24637;SDS011;12773;50.162;8.548;2022-10-31T17:50:02;14.28;;;6.15;;
24637;SDS011;12773;50.162;8.548;2022-10-31T17:52:49;20.85;;;7.70;;
24637;SDS011;12773;50.162;8.548;2022-10-31T17:55:39;17.85;;;6.67;;
24637;SDS011;12773;50.162;8.548;2022-10-31T17:58:27;14.73;;;5.67;;
24637;SDS011;12773;50.162;8.548;2022-10-31T18:01:15;12.43;;;5.10;;
24637;SDS011;12773;50.162;8.548;2022-10-31T18:04:04;11.93;;;5.47;;
24637;SDS011;12773;50.162;8.548;2022-10-31T18:06:51;12.68;;;6.35;;
24637;SDS011;12773;50.162;8.548;2022-10-31T18:09:39;11.65;;;5.70;;
24637;SDS011;12773;50.162;8.548;2022-10-31T18:12:26;15.43;;;5.60;;
24637;SDS011;12773;50.162;8.548;2022-10-31T18:15:17;11.70;;;5.75;;
24637;SDS011;12773;50.162;8.548;2022-10-31T18:18:06;14.45;;;5.87;;